GLD1974 LPPI-LPLA
Flight info
| Callsign | GLD1974 |
|---|---|
| Flight time | 0h 21m |
| Altitude | 17000 |
| Route | GORZI DCT LIZHA DCT CUDLY |
| Aircraft | A319/M-SDE3FGHIRWY/LB1 |
Departure
| Time | 2026-05-06 19:17 |
|---|---|
| Airport | Pico Airport (LPPI) |
Arrival
| Time | 2026-05-06 19:38 |
|---|---|
| Airport | Lajes Airport (LPLA) |
| Time | Latitude | Longitude | Altitude | Speed | Heading |
|---|---|---|---|---|---|
| 2026-05-06 19:14 | 38.55513 | -28.43380 | 139 ft | 15 kts | 83° |
| 2026-05-06 19:14 | 38.55526 | -28.43253 | 136 ft | 11 kts | 81° |
| 2026-05-06 19:14 | 38.55551 | -28.43187 | 139 ft | 6 kts | 64° |
| 2026-05-06 19:14 | 38.55528 | -28.43177 | 138 ft | 4 kts | 224° |
| 2026-05-06 19:15 | 38.55529 | -28.43198 | 137 ft | 0 kts | 285° |
| 2026-05-06 19:15 | 38.55529 | -28.43199 | 137 ft | 0 kts | 277° |
| 2026-05-06 19:15 | 38.55527 | -28.43216 | 139 ft | 0 kts | 266° |
| 2026-05-06 19:16 | 38.55527 | -28.43222 | 138 ft | 3 kts | 266° |
| 2026-05-06 19:16 | 38.55496 | -28.43540 | 136 ft | 80 kts | 262° |
| 2026-05-06 19:16 | 38.55393 | -28.44561 | 266 ft | 138 kts | 262° |
| 2026-05-06 19:17 | 38.55290 | -28.45798 | 1023 ft | 141 kts | 268° |
| 2026-05-06 19:17 | 38.55607 | -28.46988 | 1915 ft | 146 kts | 301° |
| 2026-05-06 19:17 | 38.56443 | -28.47837 | 2447 ft | 170 kts | 332° |
| 2026-05-06 19:17 | 38.57724 | -28.47906 | 2802 ft | 205 kts | 11° |
| 2026-05-06 19:18 | 38.59176 | -28.47301 | 3183 ft | 233 kts | 15° |
| 2026-05-06 19:18 | 38.60805 | -28.46618 | 3734 ft | 258 kts | 15° |
| 2026-05-06 19:18 | 38.62548 | -28.45895 | 4482 ft | 273 kts | 14° |
| 2026-05-06 19:18 | 38.64368 | -28.45139 | 5502 ft | 277 kts | 15° |
| 2026-05-06 19:19 | 38.66207 | -28.44374 | 6585 ft | 279 kts | 14° |
| 2026-05-06 19:19 | 38.68056 | -28.43610 | 7629 ft | 280 kts | 13° |
| 2026-05-06 19:19 | 38.69835 | -28.42547 | 8665 ft | 288 kts | 32° |
| 2026-05-06 19:19 | 38.71195 | -28.40616 | 9693 ft | 300 kts | 56° |
| 2026-05-06 19:20 | 38.71841 | -28.38025 | 10601 ft | 315 kts | 81° |
| 2026-05-06 19:20 | 38.71663 | -28.35153 | 11007 ft | 339 kts | 98° |
| 2026-05-06 19:20 | 38.71235 | -28.32066 | 11144 ft | 363 kts | 98° |
| 2026-05-06 19:20 | 38.70764 | -28.28775 | 11173 ft | 383 kts | 98° |
| 2026-05-06 19:21 | 38.70270 | -28.25405 | 11171 ft | 387 kts | 98° |
| 2026-05-06 19:21 | 38.69767 | -28.22011 | 11178 ft | 388 kts | 98° |
| 2026-05-06 19:21 | 38.69267 | -28.18622 | 11169 ft | 388 kts | 98° |
| 2026-05-06 19:21 | 38.68768 | -28.15228 | 11170 ft | 388 kts | 98° |
| 2026-05-06 19:22 | 38.68272 | -28.11836 | 11174 ft | 388 kts | 98° |
| 2026-05-06 19:22 | 38.67778 | -28.08442 | 11174 ft | 388 kts | 98° |
| 2026-05-06 19:22 | 38.67286 | -28.05056 | 11174 ft | 387 kts | 99° |
| 2026-05-06 19:22 | 38.66796 | -28.01675 | 11160 ft | 387 kts | 99° |
| 2026-05-06 19:23 | 38.66304 | -27.98294 | 11163 ft | 387 kts | 99° |
| 2026-05-06 19:23 | 38.65806 | -27.94908 | 11161 ft | 387 kts | 99° |
| 2026-05-06 19:23 | 38.65305 | -27.91518 | 11162 ft | 388 kts | 99° |
| 2026-05-06 19:23 | 38.64800 | -27.88131 | 11165 ft | 388 kts | 99° |
| 2026-05-06 19:24 | 38.64291 | -27.84737 | 11164 ft | 388 kts | 99° |
| 2026-05-06 19:24 | 38.63782 | -27.81341 | 11179 ft | 389 kts | 99° |
| 2026-05-06 19:24 | 38.63273 | -27.77950 | 11183 ft | 389 kts | 99° |
| 2026-05-06 19:24 | 38.62763 | -27.74553 | 11193 ft | 389 kts | 100° |
| 2026-05-06 19:25 | 38.62254 | -27.71153 | 11190 ft | 389 kts | 100° |
| 2026-05-06 19:25 | 38.61755 | -27.67795 | 11187 ft | 389 kts | 100° |
| 2026-05-06 19:25 | 38.61252 | -27.64398 | 11184 ft | 389 kts | 100° |
| 2026-05-06 19:25 | 38.60747 | -27.60999 | 11176 ft | 389 kts | 100° |
| 2026-05-06 19:26 | 38.60237 | -27.57607 | 11180 ft | 389 kts | 100° |
| 2026-05-06 19:26 | 38.59724 | -27.54212 | 11173 ft | 389 kts | 100° |
| 2026-05-06 19:26 | 38.59210 | -27.50833 | 11075 ft | 382 kts | 100° |
| 2026-05-06 19:26 | 38.58712 | -27.47567 | 10843 ft | 364 kts | 100° |
| 2026-05-06 19:27 | 38.58243 | -27.44494 | 10636 ft | 342 kts | 101° |
| 2026-05-06 19:27 | 38.57802 | -27.41598 | 10443 ft | 322 kts | 101° |
| 2026-05-06 19:27 | 38.57388 | -27.38877 | 10356 ft | 301 kts | 101° |
| 2026-05-06 19:27 | 38.56991 | -27.36273 | 10310 ft | 297 kts | 101° |
| 2026-05-06 19:28 | 38.56601 | -27.33698 | 10085 ft | 293 kts | 101° |
| 2026-05-06 19:28 | 38.56212 | -27.31146 | 9896 ft | 291 kts | 101° |
| 2026-05-06 19:28 | 38.55634 | -27.28678 | 9756 ft | 289 kts | 118° |
| 2026-05-06 19:28 | 38.54683 | -27.26457 | 9468 ft | 288 kts | 122° |
| 2026-05-06 19:29 | 38.53692 | -27.24270 | 9148 ft | 280 kts | 122° |
| 2026-05-06 19:29 | 38.52725 | -27.22153 | 8834 ft | 273 kts | 122° |
| 2026-05-06 19:29 | 38.51772 | -27.20071 | 8522 ft | 270 kts | 122° |
| 2026-05-06 19:29 | 38.50890 | -27.17967 | 8208 ft | 269 kts | 110° |
| 2026-05-06 19:30 | 38.50674 | -27.15614 | 7919 ft | 267 kts | 86° |
| 2026-05-06 19:30 | 38.50840 | -27.13265 | 7609 ft | 264 kts | 83° |
| 2026-05-06 19:30 | 38.51044 | -27.10943 | 7309 ft | 262 kts | 83° |
| 2026-05-06 19:30 | 38.51254 | -27.08635 | 6912 ft | 263 kts | 83° |
| 2026-05-06 19:31 | 38.51465 | -27.06336 | 6467 ft | 258 kts | 83° |
| 2026-05-06 19:31 | 38.51673 | -27.04079 | 5996 ft | 254 kts | 83° |
| 2026-05-06 19:31 | 38.52085 | -26.99658 | 5078 ft | 248 kts | 83° |
| 2026-05-06 19:32 | 38.52350 | -26.97492 | 4604 ft | 246 kts | 71° |
| 2026-05-06 19:32 | 38.53180 | -26.95607 | 4148 ft | 245 kts | 45° |
| 2026-05-06 19:32 | 38.54565 | -26.94387 | 3677 ft | 240 kts | 17° |
| 2026-05-06 19:32 | 38.56141 | -26.93963 | 3514 ft | 229 kts | 6° |
| 2026-05-06 19:33 | 38.57711 | -26.93619 | 3506 ft | 230 kts | 7° |
| 2026-05-06 19:33 | 38.59290 | -26.93290 | 3509 ft | 228 kts | 1° |
| 2026-05-06 19:33 | 38.60791 | -26.93511 | 3505 ft | 210 kts | 338° |
| 2026-05-06 19:33 | 38.62057 | -26.94359 | 3508 ft | 205 kts | 319° |
| 2026-05-06 19:34 | 38.63164 | -26.95511 | 3425 ft | 205 kts | 318° |
| 2026-05-06 19:34 | 38.64267 | -26.96656 | 3184 ft | 204 kts | 318° |
| 2026-05-06 19:34 | 38.65362 | -26.97794 | 2901 ft | 201 kts | 318° |
| 2026-05-06 19:34 | 38.66444 | -26.98920 | 2618 ft | 200 kts | 318° |
| 2026-05-06 19:35 | 38.67503 | -27.00022 | 2334 ft | 193 kts | 318° |
| 2026-05-06 19:35 | 38.68514 | -27.01074 | 2068 ft | 182 kts | 317° |
| 2026-05-06 19:35 | 38.69449 | -27.02047 | 1807 ft | 168 kts | 317° |
| 2026-05-06 19:35 | 38.70329 | -27.02964 | 1563 ft | 157 kts | 317° |
| 2026-05-06 19:36 | 38.71127 | -27.03796 | 1351 ft | 139 kts | 317° |
| 2026-05-06 19:36 | 38.71860 | -27.04561 | 1163 ft | 134 kts | 317° |
| 2026-05-06 19:36 | 38.72573 | -27.05305 | 968 ft | 131 kts | 317° |
| 2026-05-06 19:36 | 38.73282 | -27.06037 | 775 ft | 130 kts | 317° |
| 2026-05-06 19:37 | 38.73980 | -27.06774 | 577 ft | 130 kts | 318° |
| 2026-05-06 19:37 | 38.74687 | -27.07510 | 392 ft | 131 kts | 319° |
| 2026-05-06 19:37 | 38.75390 | -27.08248 | 219 ft | 130 kts | 319° |
| 2026-05-06 19:37 | 38.75822 | -27.08702 | 182 ft | 111 kts | 322° |
| 2026-05-06 19:38 | 38.76393 | -27.09298 | 179 ft | 46 kts | 321° |
| 2026-05-06 19:38 | 38.76533 | -27.09442 | 179 ft | 9 kts | 329° |
| 2026-05-06 19:38 | 38.76590 | -27.09418 | 179 ft | 10 kts | 57° |
| 2026-05-06 19:38 | 38.76631 | -27.09347 | 178 ft | 7 kts | 49° |
| 2026-05-06 19:39 | 38.76625 | -27.09288 | 178 ft | 7 kts | 129° |
| 2026-05-06 19:39 | 38.76581 | -27.09245 | 178 ft | 8 kts | 142° |
| 2026-05-06 19:39 | 38.76532 | -27.09195 | 178 ft | 10 kts | 142° |
| 2026-05-06 19:39 | 38.76475 | -27.09139 | 178 ft | 11 kts | 140° |
| 2026-05-06 19:40 | 38.76414 | -27.09073 | 178 ft | 12 kts | 140° |
| 2026-05-06 19:40 | 38.76346 | -27.09002 | 178 ft | 13 kts | 141° |
| 2026-05-06 19:40 | 38.76273 | -27.08928 | 178 ft | 14 kts | 141° |
| 2026-05-06 19:40 | 38.76196 | -27.08848 | 178 ft | 15 kts | 141° |
| 2026-05-06 19:41 | 38.76114 | -27.08763 | 179 ft | 15 kts | 141° |
| 2026-05-06 19:41 | 38.76028 | -27.08673 | 179 ft | 17 kts | 140° |
| 2026-05-06 19:41 | 38.75937 | -27.08577 | 179 ft | 17 kts | 142° |
| 2026-05-06 19:41 | 38.75866 | -27.08503 | 178 ft | 13 kts | 141° |
| 2026-05-06 19:42 | 38.75793 | -27.08426 | 178 ft | 14 kts | 140° |
| 2026-05-06 19:42 | 38.75717 | -27.08441 | 178 ft | 4 kts | 230° |
| 2026-05-06 19:42 | 38.75698 | -27.08472 | 179 ft | 6 kts | 232° |
| 2026-05-06 19:42 | 38.75658 | -27.08511 | 179 ft | 6 kts | 187° |
| 2026-05-06 19:43 | 38.75608 | -27.08478 | 179 ft | 10 kts | 144° |
| 2026-05-06 19:43 | 38.75549 | -27.08419 | 179 ft | 11 kts | 158° |
| 2026-05-06 19:43 | 38.75489 | -27.08476 | 178 ft | 12 kts | 233° |
| 2026-05-06 19:43 | 38.75466 | -27.08575 | 178 ft | 13 kts | 296° |
| 2026-05-06 19:44 | 38.75514 | -27.08663 | 178 ft | 13 kts | 273° |
| 2026-05-06 19:44 | 38.75555 | -27.08749 | 178 ft | 11 kts | 322° |
| 2026-05-06 19:44 | 38.75621 | -27.08814 | 178 ft | 12 kts | 321° |
| 2026-05-06 19:44 | 38.75636 | -27.08830 | 179 ft | 0 kts | 320° |